Terminal Aerodrome Forecast
Issued by NWS

Home | Current Version | Previous Version | Text Only | Print | Product List | Glossary On
Versions: 1 2 3 4 5 6 7 8 9 10 11 12 13 14 15 16 17 18 19
000
FTUS43 KGRB 261700
TAFCWA
TAF
KCWA 261732Z 2618/2718 27008KT P6SM SCT018 BKN025
     FM261900 29011G17KT P6SM SCT040
     FM270200 23004KT P6SM BKN120
      TEMPO 2709/2712 28005KT 6SM -SHRA SCT040 BKN060
     FM271400 30009KT 6SM -SHRA BKN035 OVC060=

USA.gov is the U.S. government's official web portal to all federal, state and local government web resources and services.